sensor_id;sensor_type;location;lat;lon;timestamp;temperature;humidity
72905;DHT22;61048;52.162;4.516;2022-12-26T00:00:07;16.50;68.70
72905;DHT22;61048;52.162;4.516;2022-12-26T00:02:36;16.50;68.60
72905;DHT22;61048;52.162;4.516;2022-12-26T00:05:03;16.50;68.60
72905;DHT22;61048;52.162;4.516;2022-12-26T00:07:30;16.50;68.70
72905;DHT22;61048;52.162;4.516;2022-12-26T00:09:57;16.50;68.60
72905;DHT22;61048;52.162;4.516;2022-12-26T00:12:25;16.50;68.70
72905;DHT22;61048;52.162;4.516;2022-12-26T00:14:52;16.50;68.80
72905;DHT22;61048;52.162;4.516;2022-12-26T00:17:19;16.60;68.70
72905;DHT22;61048;52.162;4.516;2022-12-26T00:19:46;16.60;68.60
72905;DHT22;61048;52.162;4.516;2022-12-26T00:22:13;16.50;68.60
72905;DHT22;61048;52.162;4.516;2022-12-26T00:24:40;16.50;68.70
72905;DHT22;61048;52.162;4.516;2022-12-26T00:27:07;16.60;68.60
72905;DHT22;61048;52.162;4.516;2022-12-26T00:29:35;16.60;68.60
72905;DHT22;61048;52.162;4.516;2022-12-26T00:32:02;16.60;68.70
72905;DHT22;61048;52.162;4.516;2022-12-26T00:34:29;16.60;68.60
72905;DHT22;61048;52.162;4.516;2022-12-26T00:36:56;16.60;68.60
72905;DHT22;61048;52.162;4.516;2022-12-26T00:39:23;16.60;68.60
72905;DHT22;61048;52.162;4.516;2022-12-26T00:41:50;16.60;68.60
72905;DHT22;61048;52.162;4.516;2022-12-26T00:44:17;16.60;68.70
72905;DHT22;61048;52.162;4.516;2022-12-26T00:46:45;16.60;68.60
72905;DHT22;61048;52.162;4.516;2022-12-26T00:49:12;16.60;68.80
72905;DHT22;61048;52.162;4.516;2022-12-26T00:51:39;16.60;68.70
72905;DHT22;61048;52.162;4.516;2022-12-26T00:54:06;16.60;68.60
72905;DHT22;61048;52.162;4.516;2022-12-26T00:56:32;16.60;68.60
72905;DHT22;61048;52.162;4.516;2022-12-26T00:58:59;16.60;68.70
72905;DHT22;61048;52.162;4.516;2022-12-26T01:01:26;16.60;68.70
72905;DHT22;61048;52.162;4.516;2022-12-26T01:03:57;16.60;68.60
72905;DHT22;61048;52.162;4.516;2022-12-26T01:06:24;16.60;68.70
72905;DHT22;61048;52.162;4.516;2022-12-26T01:08:52;16.60;68.70
72905;DHT22;61048;52.162;4.516;2022-12-26T01:11:19;16.60;68.70
72905;DHT22;61048;52.162;4.516;2022-12-26T01:14:05;16.60;68.90
72905;DHT22;61048;52.162;4.516;2022-12-26T01:16:32;16.60;68.80
72905;DHT22;61048;52.162;4.516;2022-12-26T01:19:01;16.60;68.80
72905;DHT22;61048;52.162;4.516;2022-12-26T01:21:28;16.60;68.80
72905;DHT22;61048;52.162;4.516;2022-12-26T01:23:54;16.60;68.80
72905;DHT22;61048;52.162;4.516;2022-12-26T01:26:21;16.60;68.90
72905;DHT22;61048;52.162;4.516;2022-12-26T01:28:49;16.60;69.00
72905;DHT22;61048;52.162;4.516;2022-12-26T01:31:17;16.60;69.00
72905;DHT22;61048;52.162;4.516;2022-12-26T01:33:44;16.60;69.00
72905;DHT22;61048;52.162;4.516;2022-12-26T01:36:13;16.60;69.10
72905;DHT22;61048;52.162;4.516;2022-12-26T01:38:39;16.60;69.20
72905;DHT22;61048;52.162;4.516;2022-12-26T01:41:06;16.60;69.20
72905;DHT22;61048;52.162;4.516;2022-12-26T01:43:52;16.60;69.20
72905;DHT22;61048;52.162;4.516;2022-12-26T01:46:23;16.60;69.20
72905;DHT22;61048;52.162;4.516;2022-12-26T01:48:52;16.60;69.20
72905;DHT22;61048;52.162;4.516;2022-12-26T01:51:23;16.60;69.20
72905;DHT22;61048;52.162;4.516;2022-12-26T01:53:54;16.60;69.20
72905;DHT22;61048;52.162;4.516;2022-12-26T01:56:24;16.60;69.20
72905;DHT22;61048;52.162;4.516;2022-12-26T01:58:56;16.60;69.20
72905;DHT22;61048;52.162;4.516;2022-12-26T02:01:28;16.60;69.20
72905;DHT22;61048;52.162;4.516;2022-12-26T02:03:58;16.60;69.20
72905;DHT22;61048;52.162;4.516;2022-12-26T02:06:45;16.70;69.20
72905;DHT22;61048;52.162;4.516;2022-12-26T02:09:12;16.70;69.20
72905;DHT22;61048;52.162;4.516;2022-12-26T02:11:42;16.60;69.30
72905;DHT22;61048;52.162;4.516;2022-12-26T02:14:10;16.60;69.20
72905;DHT22;61048;52.162;4.516;2022-12-26T02:16:38;16.60;69.20
72905;DHT22;61048;52.162;4.516;2022-12-26T02:19:11;16.70;69.20
72905;DHT22;61048;52.162;4.516;2022-12-26T02:22:02;16.60;69.20
72905;DHT22;61048;52.162;4.516;2022-12-26T02:24:51;16.70;69.10
72905;DHT22;61048;52.162;4.516;2022-12-26T02:27:42;16.60;69.10
72905;DHT22;61048;52.162;4.516;2022-12-26T02:33:29;16.60;69.10
72905;DHT22;61048;52.162;4.516;2022-12-26T02:39:28;16.60;69.00
72905;DHT22;61048;52.162;4.516;2022-12-26T02:42:03;16.60;69.20
72905;DHT22;61048;52.162;4.516;2022-12-26T02:44:37;16.60;69.20
72905;DHT22;61048;52.162;4.516;2022-12-26T02:47:31;16.60;69.20
72905;DHT22;61048;52.162;4.516;2022-12-26T02:50:06;16.60;69.10
72905;DHT22;61048;52.162;4.516;2022-12-26T02:53:01;16.60;69.20
72905;DHT22;61048;52.162;4.516;2022-12-26T02:55:49;16.60;69.20
72905;DHT22;61048;52.162;4.516;2022-12-26T02:58:41;16.60;69.10
72905;DHT22;61048;52.162;4.516;2022-12-26T03:01:29;16.60;69.10
72905;DHT22;61048;52.162;4.516;2022-12-26T03:04:18;16.60;69.10
72905;DHT22;61048;52.162;4.516;2022-12-26T03:07:11;16.60;69.10
72905;DHT22;61048;52.162;4.516;2022-12-26T03:09:57;16.60;69.10
72905;DHT22;61048;52.162;4.516;2022-12-26T03:12:47;16.60;69.10
72905;DHT22;61048;52.162;4.516;2022-12-26T03:15:38;16.60;69.00
72905;DHT22;61048;52.162;4.516;2022-12-26T03:18:22;16.60;69.10
72905;DHT22;61048;52.162;4.516;2022-12-26T03:20:52;16.60;69.00
72905;DHT22;61048;52.162;4.516;2022-12-26T03:23:19;16.60;69.10
72905;DHT22;61048;52.162;4.516;2022-12-26T03:25:50;16.60;69.10
72905;DHT22;61048;52.162;4.516;2022-12-26T03:28:36;16.60;69.10
72905;DHT22;61048;52.162;4.516;2022-12-26T03:31:06;16.60;69.20
72905;DHT22;61048;52.162;4.516;2022-12-26T03:33:34;16.60;69.20
72905;DHT22;61048;52.162;4.516;2022-12-26T03:36:30;16.60;69.20
72905;DHT22;61048;52.162;4.516;2022-12-26T03:39:06;16.60;69.10
72905;DHT22;61048;52.162;4.516;2022-12-26T03:41:42;16.60;69.10
72905;DHT22;61048;52.162;4.516;2022-12-26T03:44:31;16.60;69.10
72905;DHT22;61048;52.162;4.516;2022-12-26T03:47:24;16.60;69.20
72905;DHT22;61048;52.162;4.516;2022-12-26T03:50:16;16.60;69.10
72905;DHT22;61048;52.162;4.516;2022-12-26T03:53:14;16.60;69.20
72905;DHT22;61048;52.162;4.516;2022-12-26T03:56:05;16.60;69.20
72905;DHT22;61048;52.162;4.516;2022-12-26T03:58:56;16.60;69.20
72905;DHT22;61048;52.162;4.516;2022-12-26T04:01:45;16.60;69.20
72905;DHT22;61048;52.162;4.516;2022-12-26T04:04:32;16.60;69.20
72905;DHT22;61048;52.162;4.516;2022-12-26T04:07:20;16.60;69.30
72905;DHT22;61048;52.162;4.516;2022-12-26T04:10:10;16.60;69.20
72905;DHT22;61048;52.162;4.516;2022-12-26T04:12:57;16.60;69.20
72905;DHT22;61048;52.162;4.516;2022-12-26T04:15:45;16.60;69.20
72905;DHT22;61048;52.162;4.516;2022-12-26T04:18:35;16.60;69.20
72905;DHT22;61048;52.162;4.516;2022-12-26T04:21:25;16.60;69.20
72905;DHT22;61048;52.162;4.516;2022-12-26T04:24:14;16.60;69.10
72905;DHT22;61048;52.162;4.516;2022-12-26T04:27:03;16.60;69.20
72905;DHT22;61048;52.162;4.516;2022-12-26T04:29:49;16.60;69.10
72905;DHT22;61048;52.162;4.516;2022-12-26T04:32:36;16.60;69.10
72905;DHT22;61048;52.162;4.516;2022-12-26T04:35:28;16.60;69.00
72905;DHT22;61048;52.162;4.516;2022-12-26T04:38:18;16.60;69.10
72905;DHT22;61048;52.162;4.516;2022-12-26T04:41:04;16.60;69.00
72905;DHT22;61048;52.162;4.516;2022-12-26T04:43:52;16.60;69.00
72905;DHT22;61048;52.162;4.516;2022-12-26T04:46:32;16.50;69.00
72905;DHT22;61048;52.162;4.516;2022-12-26T04:49:03;16.50;69.00
72905;DHT22;61048;52.162;4.516;2022-12-26T04:51:48;16.60;68.90
72905;DHT22;61048;52.162;4.516;2022-12-26T04:54:15;16.50;69.00
72905;DHT22;61048;52.162;4.516;2022-12-26T04:56:42;16.50;68.90
72905;DHT22;61048;52.162;4.516;2022-12-26T04:59:10;16.50;68.80
72905;DHT22;61048;52.162;4.516;2022-12-26T05:01:37;16.60;68.90
72905;DHT22;61048;52.162;4.516;2022-12-26T05:04:21;16.50;68.90
72905;DHT22;61048;52.162;4.516;2022-12-26T05:07:11;16.50;68.80
72905;DHT22;61048;52.162;4.516;2022-12-26T05:09:57;16.50;68.90
72905;DHT22;61048;52.162;4.516;2022-12-26T05:12:24;16.50;68.90
72905;DHT22;61048;52.162;4.516;2022-12-26T05:14:53;16.50;68.90
72905;DHT22;61048;52.162;4.516;2022-12-26T05:17:20;16.50;68.80
72905;DHT22;61048;52.162;4.516;2022-12-26T05:20:05;16.50;68.80
72905;DHT22;61048;52.162;4.516;2022-12-26T05:22:50;16.50;68.80
72905;DHT22;61048;52.162;4.516;2022-12-26T05:25:39;16.50;68.80
72905;DHT22;61048;52.162;4.516;2022-12-26T05:28:25;16.50;68.80
72905;DHT22;61048;52.162;4.516;2022-12-26T05:31:13;16.50;68.80
72905;DHT22;61048;52.162;4.516;2022-12-26T05:33:40;16.50;68.80
72905;DHT22;61048;52.162;4.516;2022-12-26T05:36:28;16.50;68.70
72905;DHT22;61048;52.162;4.516;2022-12-26T05:38:55;16.50;68.70
72905;DHT22;61048;52.162;4.516;2022-12-26T05:41:22;16.50;68.70
72905;DHT22;61048;52.162;4.516;2022-12-26T05:43:49;16.50;68.60
72905;DHT22;61048;52.162;4.516;2022-12-26T05:46:17;16.50;68.70
72905;DHT22;61048;52.162;4.516;2022-12-26T05:48:44;16.50;68.60
72905;DHT22;61048;52.162;4.516;2022-12-26T05:51:11;16.50;68.50
72905;DHT22;61048;52.162;4.516;2022-12-26T05:53:38;16.50;68.50
72905;DHT22;61048;52.162;4.516;2022-12-26T05:56:07;16.50;68.60
72905;DHT22;61048;52.162;4.516;2022-12-26T05:58:35;16.50;68.60
72905;DHT22;61048;52.162;4.516;2022-12-26T06:01:04;16.50;68.60
72905;DHT22;61048;52.162;4.516;2022-12-26T06:03:33;16.50;68.60
72905;DHT22;61048;52.162;4.516;2022-12-26T06:06:01;16.50;68.50
72905;DHT22;61048;52.162;4.516;2022-12-26T06:08:28;16.50;68.60
72905;DHT22;61048;52.162;4.516;2022-12-26T06:10:55;16.50;68.60
72905;DHT22;61048;52.162;4.516;2022-12-26T06:13:22;16.50;68.60
72905;DHT22;61048;52.162;4.516;2022-12-26T06:15:50;16.50;68.50
72905;DHT22;61048;52.162;4.516;2022-12-26T06:18:16;16.50;68.50
72905;DHT22;61048;52.162;4.516;2022-12-26T06:20:45;16.50;68.50
72905;DHT22;61048;52.162;4.516;2022-12-26T06:23:12;16.50;68.60
72905;DHT22;61048;52.162;4.516;2022-12-26T06:25:38;16.50;68.50
72905;DHT22;61048;52.162;4.516;2022-12-26T06:28:05;16.50;68.50
72905;DHT22;61048;52.162;4.516;2022-12-26T06:30:32;16.50;68.50
72905;DHT22;61048;52.162;4.516;2022-12-26T06:32:59;16.50;68.50
72905;DHT22;61048;52.162;4.516;2022-12-26T06:35:26;16.50;68.60
72905;DHT22;61048;52.162;4.516;2022-12-26T06:37:54;16.50;68.60
72905;DHT22;61048;52.162;4.516;2022-12-26T06:40:21;16.50;68.60
72905;DHT22;61048;52.162;4.516;2022-12-26T06:42:48;16.50;68.60
72905;DHT22;61048;52.162;4.516;2022-12-26T06:45:15;16.50;68.60
72905;DHT22;61048;52.162;4.516;2022-12-26T06:47:42;16.50;68.50
72905;DHT22;61048;52.162;4.516;2022-12-26T06:50:09;16.50;68.60
72905;DHT22;61048;52.162;4.516;2022-12-26T06:52:36;16.50;68.50
72905;DHT22;61048;52.162;4.516;2022-12-26T06:55:05;16.50;68.50
72905;DHT22;61048;52.162;4.516;2022-12-26T06:57:32;16.50;68.50
72905;DHT22;61048;52.162;4.516;2022-12-26T06:59:59;16.50;68.50
72905;DHT22;61048;52.162;4.516;2022-12-26T07:02:25;16.50;68.50
72905;DHT22;61048;52.162;4.516;2022-12-26T07:04:52;16.50;68.50
72905;DHT22;61048;52.162;4.516;2022-12-26T07:07:19;16.50;68.50
72905;DHT22;61048;52.162;4.516;2022-12-26T07:09:46;16.50;68.40
72905;DHT22;61048;52.162;4.516;2022-12-26T07:12:14;16.50;68.50
72905;DHT22;61048;52.162;4.516;2022-12-26T07:14:45;16.50;68.40
72905;DHT22;61048;52.162;4.516;2022-12-26T07:17:12;16.50;68.40
72905;DHT22;61048;52.162;4.516;2022-12-26T07:19:39;16.50;68.40
72905;DHT22;61048;52.162;4.516;2022-12-26T07:22:05;16.50;68.40
72905;DHT22;61048;52.162;4.516;2022-12-26T07:24:32;16.50;68.40
72905;DHT22;61048;52.162;4.516;2022-12-26T07:26:59;16.50;68.50
72905;DHT22;61048;52.162;4.516;2022-12-26T07:29:27;16.50;68.40
72905;DHT22;61048;52.162;4.516;2022-12-26T07:31:54;16.50;68.30
72905;DHT22;61048;52.162;4.516;2022-12-26T07:34:22;16.50;68.40
72905;DHT22;61048;52.162;4.516;2022-12-26T07:36:49;16.50;68.30
72905;DHT22;61048;52.162;4.516;2022-12-26T07:39:16;16.50;68.40
72905;DHT22;61048;52.162;4.516;2022-12-26T07:41:43;16.50;68.40
72905;DHT22;61048;52.162;4.516;2022-12-26T07:44:27;16.50;68.30
72905;DHT22;61048;52.162;4.516;2022-12-26T07:46:55;16.50;68.20
72905;DHT22;61048;52.162;4.516;2022-12-26T07:49:22;16.50;68.20
72905;DHT22;61048;52.162;4.516;2022-12-26T07:51:49;16.50;68.30
72905;DHT22;61048;52.162;4.516;2022-12-26T07:54:17;16.50;68.10
72905;DHT22;61048;52.162;4.516;2022-12-26T07:56:44;16.50;68.20
72905;DHT22;61048;52.162;4.516;2022-12-26T07:59:13;16.50;68.20
72905;DHT22;61048;52.162;4.516;2022-12-26T08:01:42;16.50;68.20
72905;DHT22;61048;52.162;4.516;2022-12-26T08:04:10;16.50;68.10
72905;DHT22;61048;52.162;4.516;2022-12-26T08:06:37;16.50;68.10
72905;DHT22;61048;52.162;4.516;2022-12-26T08:09:04;16.50;68.10
72905;DHT22;61048;52.162;4.516;2022-12-26T08:11:33;16.50;68.10
72905;DHT22;61048;52.162;4.516;2022-12-26T08:14:00;16.60;67.90
72905;DHT22;61048;52.162;4.516;2022-12-26T08:16:28;16.60;67.90
72905;DHT22;61048;52.162;4.516;2022-12-26T08:18:56;16.60;67.90
72905;DHT22;61048;52.162;4.516;2022-12-26T08:21:23;16.50;67.80
72905;DHT22;61048;52.162;4.516;2022-12-26T08:23:50;16.60;67.70
72905;DHT22;61048;52.162;4.516;2022-12-26T08:26:17;16.50;67.80
72905;DHT22;61048;52.162;4.516;2022-12-26T08:28:48;16.60;67.70
72905;DHT22;61048;52.162;4.516;2022-12-26T08:31:15;16.60;67.60
72905;DHT22;61048;52.162;4.516;2022-12-26T08:33:42;16.60;67.50
72905;DHT22;61048;52.162;4.516;2022-12-26T08:36:12;16.60;67.50
72905;DHT22;61048;52.162;4.516;2022-12-26T08:38:41;16.60;67.40
72905;DHT22;61048;52.162;4.516;2022-12-26T08:41:08;16.50;67.40
72905;DHT22;61048;52.162;4.516;2022-12-26T08:43:35;16.60;67.40
72905;DHT22;61048;52.162;4.516;2022-12-26T08:46:04;16.50;67.40
72905;DHT22;61048;52.162;4.516;2022-12-26T08:48:31;16.60;67.40
72905;DHT22;61048;52.162;4.516;2022-12-26T08:50:59;16.50;67.40
72905;DHT22;61048;52.162;4.516;2022-12-26T08:53:28;16.60;67.30
72905;DHT22;61048;52.162;4.516;2022-12-26T08:55:57;16.60;67.40
72905;DHT22;61048;52.162;4.516;2022-12-26T08:58:24;16.50;67.40
72905;DHT22;61048;52.162;4.516;2022-12-26T09:00:51;16.50;67.40
72905;DHT22;61048;52.162;4.516;2022-12-26T09:03:18;16.50;67.40
72905;DHT22;61048;52.162;4.516;2022-12-26T09:05:45;16.60;67.40
72905;DHT22;61048;52.162;4.516;2022-12-26T09:08:12;16.60;67.50
72905;DHT22;61048;52.162;4.516;2022-12-26T09:10:40;16.50;67.40
72905;DHT22;61048;52.162;4.516;2022-12-26T09:13:07;16.50;67.40
72905;DHT22;61048;52.162;4.516;2022-12-26T09:15:34;16.60;67.40
72905;DHT22;61048;52.162;4.516;2022-12-26T09:18:01;16.60;67.40
72905;DHT22;61048;52.162;4.516;2022-12-26T09:20:28;16.60;67.40
72905;DHT22;61048;52.162;4.516;2022-12-26T09:22:55;16.60;67.10
72905;DHT22;61048;52.162;4.516;2022-12-26T09:25:24;16.60;67.30
72905;DHT22;61048;52.162;4.516;2022-12-26T09:27:52;16.50;67.00
72905;DHT22;61048;52.162;4.516;2022-12-26T09:30:20;16.50;67.10
72905;DHT22;61048;52.162;4.516;2022-12-26T09:32:47;16.50;67.10
72905;DHT22;61048;52.162;4.516;2022-12-26T09:35:14;16.50;67.30
72905;DHT22;61048;52.162;4.516;2022-12-26T09:37:41;16.50;67.40
72905;DHT22;61048;52.162;4.516;2022-12-26T09:40:19;16.60;68.40
72905;DHT22;61048;52.162;4.516;2022-12-26T09:42:49;16.60;68.70
72905;DHT22;61048;52.162;4.516;2022-12-26T09:45:26;16.70;68.70
72905;DHT22;61048;52.162;4.516;2022-12-26T09:48:00;16.70;70.00
72905;DHT22;61048;52.162;4.516;2022-12-26T09:50:31;16.70;70.00
72905;DHT22;61048;52.162;4.516;2022-12-26T09:53:03;16.70;69.90
72905;DHT22;61048;52.162;4.516;2022-12-26T09:55:36;16.70;69.60
72905;DHT22;61048;52.162;4.516;2022-12-26T09:58:12;16.70;69.40
72905;DHT22;61048;52.162;4.516;2022-12-26T10:00:49;16.70;69.40
72905;DHT22;61048;52.162;4.516;2022-12-26T10:03:17;16.70;69.00
72905;DHT22;61048;52.162;4.516;2022-12-26T10:09:10;16.70;68.60
72905;DHT22;61048;52.162;4.516;2022-12-26T10:11:56;16.70;68.20
72905;DHT22;61048;52.162;4.516;2022-12-26T10:14:34;16.70;68.50
72905;DHT22;61048;52.162;4.516;2022-12-26T10:17:11;16.70;68.40
72905;DHT22;61048;52.162;4.516;2022-12-26T10:19:53;16.70;68.50
72905;DHT22;61048;52.162;4.516;2022-12-26T10:22:36;16.70;68.20
72905;DHT22;61048;52.162;4.516;2022-12-26T10:25:16;16.70;67.40
72905;DHT22;61048;52.162;4.516;2022-12-26T10:27:47;16.60;68.00
72905;DHT22;61048;52.162;4.516;2022-12-26T10:30:19;16.60;68.00
72905;DHT22;61048;52.162;4.516;2022-12-26T10:32:51;16.60;68.10
72905;DHT22;61048;52.162;4.516;2022-12-26T10:35:26;16.70;67.90
72905;DHT22;61048;52.162;4.516;2022-12-26T10:37:54;16.70;67.90
72905;DHT22;61048;52.162;4.516;2022-12-26T10:40:26;16.60;67.90
72905;DHT22;61048;52.162;4.516;2022-12-26T10:42:56;16.60;67.80
72905;DHT22;61048;52.162;4.516;2022-12-26T10:45:31;16.60;67.80
72905;DHT22;61048;52.162;4.516;2022-12-26T10:48:00;16.60;67.30
72905;DHT22;61048;52.162;4.516;2022-12-26T10:50:29;16.60;67.60
72905;DHT22;61048;52.162;4.516;2022-12-26T10:52:57;16.60;67.50
72905;DHT22;61048;52.162;4.516;2022-12-26T10:55:27;16.60;67.50
72905;DHT22;61048;52.162;4.516;2022-12-26T10:57:54;16.60;67.30
72905;DHT22;61048;52.162;4.516;2022-12-26T11:00:26;16.60;67.30
72905;DHT22;61048;52.162;4.516;2022-12-26T11:03:13;16.60;67.00
72905;DHT22;61048;52.162;4.516;2022-12-26T11:05:42;16.60;67.30
72905;DHT22;61048;52.162;4.516;2022-12-26T11:08:15;16.60;67.20
72905;DHT22;61048;52.162;4.516;2022-12-26T11:10:59;16.60;67.20
72905;DHT22;61048;52.162;4.516;2022-12-26T11:13:26;16.60;67.20
72905;DHT22;61048;52.162;4.516;2022-12-26T11:15:53;16.60;67.10
72905;DHT22;61048;52.162;4.516;2022-12-26T11:18:29;16.60;67.00
72905;DHT22;61048;52.162;4.516;2022-12-26T11:21:11;16.60;67.00
72905;DHT22;61048;52.162;4.516;2022-12-26T11:23:38;16.60;67.00
72905;DHT22;61048;52.162;4.516;2022-12-26T11:26:18;16.60;66.50
72905;DHT22;61048;52.162;4.516;2022-12-26T11:28:45;16.60;66.60
72905;DHT22;61048;52.162;4.516;2022-12-26T11:31:20;16.60;65.80
72905;DHT22;61048;52.162;4.516;2022-12-26T11:33:52;16.60;66.40
72905;DHT22;61048;52.162;4.516;2022-12-26T11:36:21;16.60;66.10
72905;DHT22;61048;52.162;4.516;2022-12-26T11:38:53;16.50;66.10
72905;DHT22;61048;52.162;4.516;2022-12-26T11:41:33;16.50;66.00
72905;DHT22;61048;52.162;4.516;2022-12-26T11:44:16;16.50;65.90
72905;DHT22;61048;52.162;4.516;2022-12-26T11:46:47;16.50;66.10
72905;DHT22;61048;52.162;4.516;2022-12-26T11:49:24;16.50;65.90
72905;DHT22;61048;52.162;4.516;2022-12-26T11:51:52;16.50;65.80
72905;DHT22;61048;52.162;4.516;2022-12-26T11:54:26;16.50;65.50
72905;DHT22;61048;52.162;4.516;2022-12-26T11:57:08;16.50;65.70
72905;DHT22;61048;52.162;4.516;2022-12-26T11:59:35;16.50;65.60
72905;DHT22;61048;52.162;4.516;2022-12-26T12:02:15;16.50;65.50
72905;DHT22;61048;52.162;4.516;2022-12-26T12:04:46;16.50;65.20
72905;DHT22;61048;52.162;4.516;2022-12-26T12:07:21;16.50;67.00
72905;DHT22;61048;52.162;4.516;2022-12-26T12:09:55;16.50;68.70
72905;DHT22;61048;52.162;4.516;2022-12-26T12:12:32;16.60;68.40
72905;DHT22;61048;52.162;4.516;2022-12-26T12:15:06;16.60;68.00
72905;DHT22;61048;52.162;4.516;2022-12-26T12:17:43;16.70;66.90
72905;DHT22;61048;52.162;4.516;2022-12-26T12:20:25;16.60;66.40
72905;DHT22;61048;52.162;4.516;2022-12-26T12:23:25;16.60;67.20
72905;DHT22;61048;52.162;4.516;2022-12-26T12:26:01;16.60;67.40
72905;DHT22;61048;52.162;4.516;2022-12-26T12:28:53;16.60;67.40
72905;DHT22;61048;52.162;4.516;2022-12-26T12:31:30;16.60;67.40
72905;DHT22;61048;52.162;4.516;2022-12-26T12:34:04;16.60;67.40
72905;DHT22;61048;52.162;4.516;2022-12-26T12:36:37;16.60;66.60
72905;DHT22;61048;52.162;4.516;2022-12-26T12:39:11;16.60;66.80
72905;DHT22;61048;52.162;4.516;2022-12-26T12:41:47;16.60;67.20
72905;DHT22;61048;52.162;4.516;2022-12-26T12:44:20;16.60;66.50
72905;DHT22;61048;52.162;4.516;2022-12-26T12:46:54;16.60;67.10
72905;DHT22;61048;52.162;4.516;2022-12-26T12:49:34;16.60;66.50
72905;DHT22;61048;52.162;4.516;2022-12-26T12:52:15;16.60;66.40
72905;DHT22;61048;52.162;4.516;2022-12-26T12:55:13;16.60;65.80
72905;DHT22;61048;52.162;4.516;2022-12-26T12:57:44;16.60;65.80
72905;DHT22;61048;52.162;4.516;2022-12-26T13:00:16;16.60;66.00
72905;DHT22;61048;52.162;4.516;2022-12-26T13:02:50;16.60;57.60
72905;DHT22;61048;52.162;4.516;2022-12-26T13:05:26;16.50;63.50
72905;DHT22;61048;52.162;4.516;2022-12-26T13:07:59;16.60;64.30
72905;DHT22;61048;52.162;4.516;2022-12-26T13:10:29;16.60;64.60
72905;DHT22;61048;52.162;4.516;2022-12-26T13:13:10;16.60;64.70
72905;DHT22;61048;52.162;4.516;2022-12-26T13:15:42;16.60;64.60
72905;DHT22;61048;52.162;4.516;2022-12-26T13:18:13;16.70;64.80
72905;DHT22;61048;52.162;4.516;2022-12-26T13:20:44;16.70;65.10
72905;DHT22;61048;52.162;4.516;2022-12-26T13:23:18;16.70;64.90
72905;DHT22;61048;52.162;4.516;2022-12-26T13:26:07;16.70;64.80
72905;DHT22;61048;52.162;4.516;2022-12-26T13:31:19;16.70;64.60
72905;DHT22;61048;52.162;4.516;2022-12-26T13:33:47;16.70;64.50
72905;DHT22;61048;52.162;4.516;2022-12-26T13:36:32;16.70;64.30
72905;DHT22;61048;52.162;4.516;2022-12-26T13:42:31;16.70;64.60
72905;DHT22;61048;52.162;4.516;2022-12-26T13:51:52;16.70;64.50
72905;DHT22;61048;52.162;4.516;2022-12-26T13:54:21;16.70;64.50
72905;DHT22;61048;52.162;4.516;2022-12-26T13:59:50;16.80;64.70
72905;DHT22;61048;52.162;4.516;2022-12-26T14:02:50;16.80;64.80
72905;DHT22;61048;52.162;4.516;2022-12-26T14:05:24;16.90;64.70
72905;DHT22;61048;52.162;4.516;2022-12-26T14:07:57;16.90;64.00
72905;DHT22;61048;52.162;4.516;2022-12-26T14:10:35;16.90;64.00
72905;DHT22;61048;52.162;4.516;2022-12-26T14:13:19;17.00;64.00
72905;DHT22;61048;52.162;4.516;2022-12-26T14:16:00;17.00;63.60
72905;DHT22;61048;52.162;4.516;2022-12-26T14:18:37;17.10;63.80
72905;DHT22;61048;52.162;4.516;2022-12-26T14:21:28;17.10;63.90
72905;DHT22;61048;52.162;4.516;2022-12-26T14:24:01;17.10;63.80
72905;DHT22;61048;52.162;4.516;2022-12-26T14:26:39;17.20;63.50
72905;DHT22;61048;52.162;4.516;2022-12-26T14:29:17;17.20;63.40
72905;DHT22;61048;52.162;4.516;2022-12-26T14:31:55;17.20;63.50
72905;DHT22;61048;52.162;4.516;2022-12-26T14:34:33;17.20;63.00
72905;DHT22;61048;52.162;4.516;2022-12-26T14:37:09;17.10;63.20
72905;DHT22;61048;52.162;4.516;2022-12-26T14:40:01;17.10;63.20
72905;DHT22;61048;52.162;4.516;2022-12-26T14:42:28;17.10;63.50
72905;DHT22;61048;52.162;4.516;2022-12-26T14:45:38;17.10;63.20
72905;DHT22;61048;52.162;4.516;2022-12-26T14:51:30;17.00;63.50
72905;DHT22;61048;52.162;4.516;2022-12-26T14:54:17;17.00;63.60
72905;DHT22;61048;52.162;4.516;2022-12-26T14:56:57;17.00;63.40
72905;DHT22;61048;52.162;4.516;2022-12-26T14:59:28;16.90;62.70
72905;DHT22;61048;52.162;4.516;2022-12-26T15:02:10;16.90;62.90
72905;DHT22;61048;52.162;4.516;2022-12-26T15:05:02;16.90;63.20
72905;DHT22;61048;52.162;4.516;2022-12-26T15:08:05;16.90;63.30
72905;DHT22;61048;52.162;4.516;2022-12-26T15:10:47;16.90;63.20
72905;DHT22;61048;52.162;4.516;2022-12-26T15:17:03;16.90;63.40
72905;DHT22;61048;52.162;4.516;2022-12-26T15:20:15;16.90;63.10
72905;DHT22;61048;52.162;4.516;2022-12-26T15:23:16;16.80;63.20
72905;DHT22;61048;52.162;4.516;2022-12-26T15:29:19;16.80;63.10
72905;DHT22;61048;52.162;4.516;2022-12-26T15:31:58;16.80;62.90
72905;DHT22;61048;52.162;4.516;2022-12-26T15:37:27;16.70;62.60
72905;DHT22;61048;52.162;4.516;2022-12-26T15:40:05;16.70;62.60
72905;DHT22;61048;52.162;4.516;2022-12-26T15:42:53;16.70;62.70
72905;DHT22;61048;52.162;4.516;2022-12-26T15:45:42;16.70;62.50
72905;DHT22;61048;52.162;4.516;2022-12-26T15:48:31;16.60;62.70
72905;DHT22;61048;52.162;4.516;2022-12-26T15:51:04;16.60;62.70
72905;DHT22;61048;52.162;4.516;2022-12-26T15:53:48;16.60;62.30
72905;DHT22;61048;52.162;4.516;2022-12-26T15:59:39;16.60;62.50
72905;DHT22;61048;52.162;4.516;2022-12-26T16:02:13;16.60;62.60
72905;DHT22;61048;52.162;4.516;2022-12-26T16:04:43;16.50;62.20
72905;DHT22;61048;52.162;4.516;2022-12-26T16:07:22;16.50;62.20
72905;DHT22;61048;52.162;4.516;2022-12-26T16:09:51;16.50;62.20
72905;DHT22;61048;52.162;4.516;2022-12-26T16:12:22;16.50;62.30
72905;DHT22;61048;52.162;4.516;2022-12-26T16:14:59;16.50;62.30
72905;DHT22;61048;52.162;4.516;2022-12-26T16:17:27;16.50;62.40
72905;DHT22;61048;52.162;4.516;2022-12-26T16:19:54;16.40;62.30
72905;DHT22;61048;52.162;4.516;2022-12-26T16:22:29;16.40;62.40
72905;DHT22;61048;52.162;4.516;2022-12-26T16:25:09;16.40;62.40
72905;DHT22;61048;52.162;4.516;2022-12-26T16:27:38;16.40;62.30
72905;DHT22;61048;52.162;4.516;2022-12-26T16:30:13;16.40;62.30
72905;DHT22;61048;52.162;4.516;2022-12-26T16:32:41;16.40;62.40
72905;DHT22;61048;52.162;4.516;2022-12-26T16:35:16;16.30;62.20
72905;DHT22;61048;52.162;4.516;2022-12-26T16:37:44;16.30;62.40
72905;DHT22;61048;52.162;4.516;2022-12-26T16:40:23;16.30;62.40
72905;DHT22;61048;52.162;4.516;2022-12-26T16:42:57;16.30;62.60
72905;DHT22;61048;52.162;4.516;2022-12-26T16:45:27;16.30;62.40
72905;DHT22;61048;52.162;4.516;2022-12-26T16:47:54;16.30;62.40
72905;DHT22;61048;52.162;4.516;2022-12-26T16:50:23;16.30;62.40
72905;DHT22;61048;52.162;4.516;2022-12-26T16:53:01;16.30;62.40
72905;DHT22;61048;52.162;4.516;2022-12-26T16:55:35;16.30;62.50